Time;durP1;ratioP1;P1;durP2;ratioP2;P2;SDS_P1;SDS_P2;PMS_P1;PMS_P2;Temp;Humidity;BMP_temperature;BMP_pressure;BME280_temperature;BME280_humidity;BME280_pressure;Samples;Min_cycle;Max_cycle;Signal;HPM_P1;HPM_P2
2021/07/19 00:01:07;;;;;;;1999.90;999.90;;;;;;;21.48;100.00;94866.38;5130012;27;20203;-72
2021/07/19 00:03:34;;;;;;;1999.90;999.90;;;;;;;21.29;100.00;94867.50;5130413;27;20206;-70
2021/07/19 00:06:01;;;;;;;1999.90;999.90;;;;;;;21.31;100.00;94867.13;5130287;27;20275;-72
2021/07/19 00:08:29;;;;;;;1999.90;999.90;;;;;;;21.26;100.00;94870.16;5129847;27;20198;-71
2021/07/19 00:10:56;;;;;;;1999.90;999.90;;;;;;;21.28;100.00;94860.69;5129871;27;20218;-72
2021/07/19 00:13:24;;;;;;;1999.90;999.90;;;;;;;21.14;100.00;94857.28;5130091;27;20255;-72
2021/07/19 00:15:53;;;;;;;1999.90;999.90;;;;;;;21.08;100.00;94854.22;5130113;27;20258;-73
2021/07/19 00:18:20;;;;;;;1999.90;999.90;;;;;;;21.04;100.00;94861.38;5124597;27;20195;-71
2021/07/19 00:20:47;;;;;;;1999.90;999.90;;;;;;;21.06;100.00;94869.72;5118818;28;20217;-70
2021/07/19 00:23:15;;;;;;;1999.90;999.90;;;;;;;20.90;100.00;94861.38;5129952;27;20194;-71
2021/07/19 00:25:42;;;;;;;1999.90;999.90;;;;;;;20.86;100.00;94860.59;5130209;27;20206;-72
2021/07/19 00:28:09;;;;;;;1999.90;999.90;;;;;;;20.84;100.00;94873.41;5129591;27;20662;-70
2021/07/19 00:30:38;;;;;;;1999.90;999.90;;;;;;;20.71;100.00;94874.91;5129844;27;20222;-71
2021/07/19 00:33:07;;;;;;;1999.90;999.90;;;;;;;20.46;100.00;94870.28;5129674;27;20202;-70
2021/07/19 00:35:35;;;;;;;1999.90;999.90;;;;;;;20.48;100.00;94857.47;5129858;27;20206;-70
2021/07/19 00:38:02;;;;;;;1999.90;999.90;;;;;;;20.59;100.00;94857.50;5129698;27;20254;-72
2021/07/19 00:40:31;;;;;;;1999.90;999.90;;;;;;;20.61;100.00;94868.47;5131455;27;20255;-72
2021/07/19 00:42:59;;;;;;;1999.90;999.90;;;;;;;20.55;100.00;94867.31;5134081;27;20251;-71
2021/07/19 00:45:28;;;;;;;1999.90;999.90;;;;;;;20.45;100.00;94866.13;5134235;27;20198;-71
2021/07/19 00:47:57;;;;;;;1999.90;999.90;;;;;;;20.43;100.00;94872.91;5133642;27;20204;-71
2021/07/19 00:50:28;;;;;;;1999.90;999.90;;;;;;;20.48;100.00;94877.81;5133944;27;20202;-72
2021/07/19 00:52:57;;;;;;;1999.90;999.90;;;;;;;20.47;100.00;94874.41;5133709;27;20187;-71
2021/07/19 00:55:30;;;;;;;1999.90;999.90;;;;;;;20.47;100.00;94869.13;5133993;27;20186;-71
2021/07/19 00:57:58;;;;;;;1999.90;999.90;;;;;;;20.48;100.00;94870.66;5133641;27;20273;-70
2021/07/19 01:00:25;;;;;;;1999.90;999.90;;;;;;;20.42;100.00;94864.22;5133761;27;20707;-71
2021/07/19 01:02:54;;;;;;;1999.90;999.90;;;;;;;20.32;100.00;94864.19;5133852;27;20571;-70
2021/07/19 01:05:21;;;;;;;1999.90;999.90;;;;;;;20.24;100.00;94873.91;5133763;27;20202;-71
2021/07/19 01:07:51;;;;;;;1999.90;999.90;;;;;;;20.05;100.00;94861.00;5133675;27;20662;-71
2021/07/19 01:10:19;;;;;;;1999.90;999.90;;;;;;;20.08;100.00;94874.19;5133479;27;20199;-71
2021/07/19 01:12:48;;;;;;;1999.90;999.90;;;;;;;20.18;100.00;94868.22;5133647;27;20318;-71
2021/07/19 01:15:18;;;;;;;1999.90;999.90;;;;;;;20.23;100.00;94874.28;5133472;27;20205;-71
2021/07/19 01:17:45;;;;;;;1999.90;999.90;;;;;;;20.33;100.00;94866.44;5133908;27;20255;-71
2021/07/19 01:20:13;;;;;;;1999.90;999.90;;;;;;;20.27;100.00;94870.56;5128922;27;20199;-70
2021/07/19 01:23:33;;;;;;;1999.90;999.90;;;;;;;20.28;100.00;94884.47;5112938;28;20195;-70
2021/07/19 01:26:22;;;;;;;1999.90;999.90;;;;;;;20.22;100.00;94881.47;5075662;28;20199;-70
2021/07/19 01:28:52;;;;;;;1999.90;999.90;;;;;;;20.12;100.00;94884.78;5112334;28;20299;-70
2021/07/19 01:31:24;;;;;;;1999.90;999.90;;;;;;;20.05;100.00;94882.09;5112670;28;20239;-70
2021/07/19 01:33:55;;;;;;;1999.90;999.90;;;;;;;19.95;100.00;94885.44;5112450;28;20190;-70
2021/07/19 01:36:27;;;;;;;1999.90;999.90;;;;;;;19.75;100.00;94888.31;5112381;28;20244;-71
2021/07/19 01:38:55;;;;;;;1999.90;999.90;;;;;;;19.71;100.00;94874.38;5112464;28;20179;-70
2021/07/19 01:41:23;;;;;;;1999.90;999.90;;;;;;;19.82;100.00;94878.94;5112522;28;20252;-70
2021/07/19 01:43:53;;;;;;;1999.90;999.90;;;;;;;19.91;100.00;94879.38;5112484;28;20195;-70
2021/07/19 01:46:21;;;;;;;1999.90;999.90;;;;;;;20.02;100.00;94888.13;5112376;28;20191;-71
2021/07/19 01:48:49;;;;;;;1999.90;999.90;;;;;;;20.05;100.00;94880.22;5112146;28;20563;-71
2021/07/19 01:51:17;;;;;;;1999.90;999.90;;;;;;;20.17;100.00;94868.63;5111523;28;20223;-71
2021/07/19 01:53:45;;;;;;;1999.90;999.90;;;;;;;20.22;100.00;94873.53;5112261;28;20582;-71
2021/07/19 01:56:13;;;;;;;1999.90;999.90;;;;;;;20.26;100.00;94882.22;5112127;28;20245;-72
2021/07/19 01:58:41;;;;;;;1999.90;999.90;;;;;;;20.26;100.00;94884.88;5111931;28;20199;-71
2021/07/19 02:01:10;;;;;;;1999.90;999.90;;;;;;;20.13;100.00;94889.69;5113555;27;20554;-71
2021/07/19 02:03:37;;;;;;;1999.90;999.90;;;;;;;19.94;100.00;94887.31;5129504;27;20730;-70
2021/07/19 02:06:05;;;;;;;1999.90;999.90;;;;;;;19.88;100.00;94883.50;5127331;27;20601;-70
2021/07/19 02:08:33;;;;;;;1999.90;999.90;;;;;;;19.88;100.00;94880.09;5131975;27;20205;-70
2021/07/19 02:11:01;;;;;;;1999.90;999.90;;;;;;;19.92;100.00;94873.75;5131114;27;21044;-71
2021/07/19 02:13:32;;;;;;;1999.90;999.90;;;;;;;19.93;100.00;94874.47;5130027;27;20206;-71
2021/07/19 02:16:00;;;;;;;1999.90;999.90;;;;;;;19.94;100.00;94878.63;5131264;27;20187;-71
2021/07/19 02:18:31;;;;;;;1999.90;999.90;;;;;;;19.94;100.00;94879.41;5132304;27;20203;-70
2021/07/19 02:21:04;;;;;;;1999.90;999.90;;;;;;;19.98;100.00;94882.06;5121641;27;20183;-71
2021/07/19 02:23:33;;;;;;;1999.90;999.90;;;;;;;20.11;100.00;94880.63;5111671;28;20659;-70
2021/07/19 02:26:01;;;;;;;1999.90;999.90;;;;;;;20.03;100.00;94885.09;5111313;28;20285;-70
2021/07/19 02:28:29;;;;;;;1999.90;999.90;;;;;;;20.01;100.00;94882.09;5116989;27;20549;-71
2021/07/19 02:30:59;;;;;;;1999.90;999.90;;;;;;;19.94;100.00;94884.69;5131951;27;20884;-71
2021/07/19 02:33:28;;;;;;;1999.90;999.90;;;;;;;19.94;100.00;94887.31;5131805;27;20204;-71
2021/07/19 02:35:56;;;;;;;1999.90;999.90;;;;;;;19.98;100.00;94884.69;5131980;27;20202;-71
2021/07/19 02:38:25;;;;;;;1999.90;999.90;;;;;;;20.06;100.00;94894.94;5131739;27;20201;-70
2021/07/19 02:40:53;;;;;;;1999.90;999.90;;;;;;;20.00;100.00;94891.13;5131501;27;20194;-70
2021/07/19 02:43:23;;;;;;;1999.90;999.90;;;;;;;20.03;100.00;94894.91;5131318;27;20229;-70
2021/07/19 02:45:53;;;;;;;1999.90;999.90;;;;;;;19.99;100.00;94902.78;5131634;27;20247;-71
2021/07/19 02:48:21;;;;;;;1999.90;999.90;;;;;;;19.88;100.00;94894.03;5131333;27;20221;-71
2021/07/19 02:50:55;;;;;;;1999.90;999.90;;;;;;;19.76;100.00;94900.38;5131577;27;20198;-71
2021/07/19 02:53:24;;;;;;;1999.90;999.90;;;;;;;19.69;100.00;94910.09;5131352;27;20275;-71
2021/07/19 02:55:51;;;;;;;1999.90;999.90;;;;;;;19.71;100.00;94906.00;5131624;27;20198;-73
2021/07/19 02:58:20;;;;;;;1999.90;999.90;;;;;;;19.83;100.00;94914.72;5131387;27;20190;-76
2021/07/19 03:00:49;;;;;;;1999.90;999.90;;;;;;;19.63;100.00;94914.97;5131102;27;20194;-71
2021/07/19 03:03:21;;;;;;;1999.90;999.90;;;;;;;19.51;100.00;94922.41;5125283;27;20739;-74
2021/07/19 03:05:55;;;;;;;1999.90;999.90;;;;;;;19.38;100.00;94923.78;5110884;27;20240;-71
2021/07/19 03:08:24;;;;;;;1999.90;999.90;;;;;;;19.31;100.00;94927.09;5110373;28;20207;-71
2021/07/19 03:10:53;;;;;;;1999.90;999.90;;;;;;;19.24;100.00;94925.13;5110391;28;20199;-72
2021/07/19 03:13:24;;;;;;;1999.90;999.90;;;;;;;19.17;100.00;94932.22;5110161;27;20284;-70
2021/07/19 03:15:53;;;;;;;1999.90;999.90;;;;;;;19.10;100.00;94932.91;5110297;28;20205;-72
2021/07/19 03:18:22;;;;;;;1999.90;999.90;;;;;;;19.03;100.00;94924.91;5110417;28;20195;-71
2021/07/19 03:20:52;;;;;;;1999.90;999.90;;;;;;;19.09;100.00;94935.88;5118652;27;20441;-70
2021/07/19 03:23:28;;;;;;;1999.90;999.90;;;;;;;19.10;100.00;94929.50;5130617;27;20578;-68
2021/07/19 03:25:58;;;;;;;1999.90;999.90;;;;;;;19.05;100.00;94927.94;5130643;27;20716;-72
2021/07/19 03:28:26;;;;;;;1999.90;999.90;;;;;;;19.04;100.00;94944.88;5130469;27;20251;-72
2021/07/19 03:30:54;;;;;;;1999.90;999.90;;;;;;;19.08;100.00;94937.03;5130864;27;20222;-71
2021/07/19 03:33:22;;;;;;;1999.90;999.90;;;;;;;18.98;100.00;94937.66;5130891;27;20218;-71
2021/07/19 03:35:53;;;;;;;1999.90;999.90;;;;;;;18.95;100.00;94938.38;5130342;27;20669;-71
2021/07/19 03:38:21;;;;;;;1999.90;999.90;;;;;;;18.98;100.00;94938.41;5129846;27;20247;-73
2021/07/19 03:40:48;;;;;;;1999.90;999.90;;;;;;;19.03;100.00;94939.97;5122179;27;20202;-72
2021/07/19 03:43:16;;;;;;;1999.90;999.90;;;;;;;19.18;100.00;94937.09;5127842;27;20256;-72
2021/07/19 03:45:48;;;;;;;1999.90;999.90;;;;;;;19.29;100.00;94931.94;5127572;27;20258;-72
2021/07/19 03:48:18;;;;;;;1999.90;999.90;;;;;;;19.24;100.00;94940.94;5129520;27;20193;-73
2021/07/19 03:50:45;;;;;;;1999.90;999.90;;;;;;;19.27;100.00;94932.31;5122293;27;20195;-73
2021/07/19 03:53:14;;;;;;;1999.90;999.90;;;;;;;19.32;100.00;94939.16;5117857;27;20462;-69
2021/07/19 03:55:44;;;;;;;1999.90;999.90;;;;;;;19.21;100.00;94940.91;5109319;27;20251;-71
2021/07/19 03:58:12;;;;;;;1999.90;999.90;;;;;;;19.25;100.00;94946.97;5145154;27;20222;-71
2021/07/19 04:00:39;;;;;;;1999.90;999.90;;;;;;;19.35;100.00;94948.94;5148184;27;20201;-70
2021/07/19 04:03:16;;;;;;;1999.90;999.90;;;;;;;19.46;100.00;94952.47;5147912;27;20250;-70
2021/07/19 04:05:44;;;;;;;1999.90;999.90;;;;;;;19.48;100.00;94960.00;5148351;27;20196;-71
2021/07/19 04:08:13;;;;;;;1999.90;999.90;;;;;;;19.52;100.00;94960.81;5148268;27;20274;-70
2021/07/19 04:10:41;;;;;;;1999.90;999.90;;;;;;;19.67;100.00;94955.31;5148288;27;20196;-71
2021/07/19 04:13:08;;;;;;;1999.90;999.90;;;;;;;19.73;100.00;94948.56;5148470;27;20218;-70
2021/07/19 04:15:38;;;;;;;1999.90;999.90;;;;;;;19.84;100.00;94950.53;5150539;27;20193;-69
2021/07/19 04:18:06;;;;;;;1999.90;999.90;;;;;;;19.90;100.00;94959.63;5150853;27;20649;-70
2021/07/19 04:20:33;;;;;;;1999.90;999.90;;;;;;;20.00;100.00;94958.94;5131321;27;20198;-68
2021/07/19 04:23:01;;;;;;;1999.90;999.90;;;;;;;20.11;100.00;94959.78;5130218;27;20197;-69
2021/07/19 04:25:28;;;;;;;1999.90;999.90;;;;;;;20.16;100.00;94948.91;5130086;27;20202;-68
2021/07/19 04:27:57;;;;;;;1999.90;999.90;;;;;;;20.33;100.00;94960.69;5129942;27;20573;-69
2021/07/19 04:30:33;;;;;;;1999.90;999.90;;;;;;;20.41;100.00;94955.09;5113870;27;20222;-69
2021/07/19 04:33:00;;;;;;;1999.90;999.90;;;;;;;20.56;100.00;94969.91;5109255;28;20304;-70
2021/07/19 04:35:27;;;;;;;1999.90;999.90;;;;;;;20.86;100.00;94963.63;5109389;28;20203;-69
2021/07/19 04:37:54;;;;;;;1999.90;999.90;;;;;;;21.03;100.00;94970.84;5109032;28;20198;-70
2021/07/19 04:40:22;;;;;;;1999.90;999.90;;;;;;;21.48;100.00;94967.59;5109098;28;20293;-70
2021/07/19 04:42:50;;;;;;;1999.90;999.90;;;;;;;21.85;98.38;94977.09;5109399;28;20199;-70
2021/07/19 04:45:20;;;;;;;1999.90;999.90;;;;;;;22.16;96.33;94975.59;5109236;28;20206;-70
2021/07/19 04:47:48;;;;;;;1999.90;999.90;;;;;;;22.46;93.90;94980.47;5108995;28;20191;-70
2021/07/19 04:50:16;;;;;;;1999.90;999.90;;;;;;;22.63;92.36;94988.38;5108937;28;20198;-70
2021/07/19 04:52:43;;;;;;;1999.90;999.90;;;;;;;22.59;92.84;94981.59;5108800;28;20226;-70
2021/07/19 04:55:14;;;;;;;1999.90;999.90;;;;;;;22.66;92.47;94986.88;5109300;28;20194;-69
2021/07/19 04:57:43;;;;;;;1999.90;999.90;;;;;;;22.67;93.47;94983.06;5109106;28;20202;-67
2021/07/19 05:00:12;;;;;;;1999.90;999.90;;;;;;;22.79;93.64;94985.34;5108755;28;20199;-68
2021/07/19 05:02:42;;;;;;;1999.90;999.90;;;;;;;22.90;89.65;94986.06;5109000;28;20207;-68
2021/07/19 05:05:13;;;;;;;1999.90;999.90;;;;;;;23.01;89.37;94986.75;5109236;28;20243;-68
2021/07/19 05:07:43;;;;;;;1999.90;999.90;;;;;;;23.05;88.87;94990.19;5108911;28;20927;-68
2021/07/19 05:10:13;;;;;;;1999.90;999.90;;;;;;;23.15;88.89;94992.03;5108913;28;20188;-68
2021/07/19 05:12:43;;;;;;;1999.90;999.90;;;;;;;23.30;87.45;94987.41;5108829;28;20814;-68
2021/07/19 05:15:12;;;;;;;1999.90;999.90;;;;;;;23.43;87.29;95001.72;5108959;28;20195;-68
2021/07/19 05:17:41;;;;;;;1999.90;999.90;;;;;;;23.55;86.33;94998.66;5109009;28;20563;-69
2021/07/19 05:20:13;;;;;;;1999.90;999.90;;;;;;;23.69;90.51;95003.13;5122028;28;20220;-68
2021/07/19 05:22:46;;;;;;;1999.90;999.90;;;;;;;23.76;87.28;94997.03;5129703;27;20190;-68
2021/07/19 05:25:15;;;;;;;1999.90;999.90;;;;;;;23.81;89.83;95001.94;5129453;27;20573;-68
2021/07/19 05:28:02;;;;;;;1999.90;999.90;;;;;;;23.72;90.91;94999.69;5132722;27;20195;-67
2021/07/19 05:30:29;;;;;;;1999.90;999.90;;;;;;;23.83;88.72;95003.03;5132983;27;20703;-68
2021/07/19 05:32:58;;;;;;;1999.90;999.90;;;;;;;23.99;87.26;94999.88;5133092;27;20222;-67
2021/07/19 05:35:25;;;;;;;1999.90;999.90;;;;;;;24.15;87.77;94991.44;5133276;27;20202;-68
2021/07/19 05:37:52;;;;;;;1999.90;999.90;;;;;;;24.45;85.23;94994.22;5133183;27;20194;-68
2021/07/19 05:40:20;;;;;;;1999.90;999.90;;;;;;;24.65;83.64;94991.75;5132925;27;20611;-68
2021/07/19 05:42:48;;;;;;;1999.90;999.90;;;;;;;24.80;80.24;94993.88;5132912;27;20685;-68
2021/07/19 05:45:17;;;;;;;1999.90;999.90;;;;;;;24.86;79.07;94999.47;5132746;27;20194;-68
2021/07/19 05:47:45;;;;;;;1999.90;999.90;;;;;;;24.83;79.31;94992.31;5132609;27;20202;-73
2021/07/19 05:50:14;;;;;;;1999.90;999.90;;;;;;;24.91;77.69;94998.34;5132878;27;20216;-74
2021/07/19 05:52:41;;;;;;;1999.90;999.90;;;;;;;24.99;77.40;94994.44;5132434;27;20219;-74
2021/07/19 05:55:09;;;;;;;1999.90;999.90;;;;;;;24.98;78.07;94998.25;5132518;27;20268;-74
2021/07/19 05:57:40;;;;;;;1999.90;999.90;;;;;;;25.06;77.01;94997.00;5132617;27;20669;-74
2021/07/19 06:00:14;;;;;;;1999.90;999.90;;;;;;;25.23;76.78;94994.13;5132453;27;20207;-73
2021/07/19 06:02:41;;;;;;;1999.90;999.90;;;;;;;25.27;76.20;94999.41;5132532;27;20587;-74
2021/07/19 06:05:09;;;;;;;1999.90;999.90;;;;;;;25.25;75.21;95001.72;5132375;27;20201;-74
2021/07/19 06:07:38;;;;;;;1999.90;999.90;;;;;;;25.34;73.95;94994.00;5132183;27;20206;-73
2021/07/19 06:10:08;;;;;;;1999.90;999.90;;;;;;;25.53;73.96;95005.91;5132165;27;20205;-74
2021/07/19 06:12:35;;;;;;;1999.90;999.90;;;;;;;25.73;72.95;95004.16;5132051;27;20659;-75
2021/07/19 06:15:02;;;;;;;1999.90;999.90;;;;;;;25.82;72.89;94996.41;5132195;27;20221;-72
2021/07/19 06:17:29;;;;;;;1999.90;999.90;;;;;;;26.07;69.12;94994.13;5132348;27;20196;-75
2021/07/19 06:19:56;;;;;;;1999.90;999.90;;;;;;;26.04;69.03;94999.50;5120787;27;20206;-75
2021/07/19 06:22:23;;;;;;;1999.90;999.90;;;;;;;26.08;68.15;95005.53;5111749;28;20260;-73
2021/07/19 06:24:54;;;;;;;1999.90;999.90;;;;;;;26.22;69.70;95010.66;5111585;28;20199;-73
2021/07/19 06:27:21;;;;;;;1999.90;999.90;;;;;;;26.17;68.72;95005.75;5111764;28;20203;-75
2021/07/19 06:29:48;;;;;;;1999.90;999.90;;;;;;;26.37;65.89;95005.84;5111150;28;20234;-76
2021/07/19 06:32:15;;;;;;;1999.90;999.90;;;;;;;26.43;68.67;95004.97;5111477;28;20214;-75
2021/07/19 06:34:43;;;;;;;1999.90;999.90;;;;;;;26.50;67.06;94999.50;5111540;27;20573;-72
2021/07/19 06:37:10;;;;;;;1999.90;999.90;;;;;;;26.72;68.69;94999.13;5111582;28;20192;-72
2021/07/19 06:39:37;;;;;;;1999.90;999.90;;;;;;;26.98;68.29;94990.28;5117585;27;20606;-72
2021/07/19 06:42:06;;;;;;;1999.90;999.90;;;;;;;27.16;65.33;94993.34;5131522;27;20198;-71
2021/07/19 06:44:33;;;;;;;1999.90;999.90;;;;;;;27.39;63.08;94985.25;5131712;27;20226;-74
2021/07/19 06:47:00;;;;;;;1999.90;999.90;;;;;;;27.44;65.85;94988.59;5131574;27;20205;-74
2021/07/19 06:49:28;;;;;;;1999.90;999.90;;;;;;;27.60;67.13;94993.97;5131366;27;20702;-81
2021/07/19 06:51:55;;;;;;;1999.90;999.90;;;;;;;27.41;67.63;94985.59;5131422;27;20418;-83
2021/07/19 06:54:22;;;;;;;1999.90;999.90;;;;;;;27.47;67.75;94985.09;5131502;27;20794;-78
2021/07/19 06:56:49;;;;;;;1999.90;999.90;;;;;;;27.45;67.61;94987.44;5131400;27;20294;-72
2021/07/19 06:59:18;;;;;;;1999.90;999.90;;;;;;;27.45;67.13;94985.50;5131149;27;20202;-73
2021/07/19 07:01:45;;;;;;;1999.90;999.90;;;;;;;27.68;66.56;94990.75;5131185;27;20190;-72
2021/07/19 07:04:12;;;;;;;1999.90;999.90;;;;;;;27.78;68.09;94986.34;5131441;27;20194;-71
2021/07/19 07:06:39;;;;;;;1999.90;999.90;;;;;;;27.68;68.24;94990.00;5131037;27;20208;-72
2021/07/19 07:09:07;;;;;;;1999.90;999.90;;;;;;;27.69;65.22;94986.94;5131253;27;20302;-72
2021/07/19 07:11:34;;;;;;;1999.90;999.90;;;;;;;27.75;66.08;94989.81;5131058;27;20202;-74
2021/07/19 07:14:02;;;;;;;1999.90;999.90;;;;;;;27.73;67.51;94987.59;5130906;27;20230;-72
2021/07/19 07:16:30;;;;;;;1999.90;999.90;;;;;;;27.87;65.15;94981.16;5131374;27;20217;-72
2021/07/19 07:18:57;;;;;;;1999.90;999.90;;;;;;;27.73;65.87;94979.56;5128007;27;20195;-71
2021/07/19 07:21:25;;;;;;;1999.90;999.90;;;;;;;27.70;63.85;94982.31;5110437;28;20217;-72
2021/07/19 07:23:52;;;;;;;1999.90;999.90;;;;;;;27.79;62.67;94983.25;5110279;28;20195;-72
2021/07/19 07:26:19;;;;;;;1999.90;999.90;;;;;;;28.01;63.38;94972.06;5110542;28;20900;-72
2021/07/19 07:28:46;;;;;;;1999.90;999.90;;;;;;;28.23;63.50;94965.81;5109939;28;20231;-72
2021/07/19 07:31:14;;;;;;;1999.90;999.90;;;;;;;28.30;61.86;94969.47;5110332;28;20665;-73
2021/07/19 07:33:43;;;;;;;1999.90;999.90;;;;;;;28.31;61.53;94974.41;5110349;28;20222;-73
2021/07/19 07:36:10;;;;;;;1999.90;999.90;;;;;;;28.38;59.23;94966.22;5110400;28;20203;-72
2021/07/19 07:38:37;;;;;;;1999.90;999.90;;;;;;;28.55;61.29;94972.25;5109974;28;20203;-72
2021/07/19 07:41:04;;;;;;;1999.90;999.90;;;;;;;28.66;60.57;94964.72;5109993;28;20195;-71
2021/07/19 07:43:31;;;;;;;1999.90;999.90;;;;;;;28.68;61.06;94973.06;5109882;28;20194;-72
2021/07/19 07:45:59;;;;;;;1999.90;999.90;;;;;;;28.76;59.91;94969.06;5109920;27;20199;-72
2021/07/19 07:48:26;;;;;;;1999.90;999.90;;;;;;;29.06;60.09;94957.16;5110027;28;20206;-73
2021/07/19 07:50:54;;;;;;;1999.90;999.90;;;;;;;29.28;59.26;94962.66;5109553;28;20947;-73
2021/07/19 07:53:22;;;;;;;1999.90;999.90;;;;;;;29.19;57.13;94962.53;5110034;28;20413;-73
2021/07/19 07:55:49;;;;;;;1999.90;999.90;;;;;;;29.10;58.96;94961.22;5110134;27;20689;-73
2021/07/19 07:58:16;;;;;;;1999.90;999.90;;;;;;;29.02;57.00;94959.94;5109655;28;20656;-73
2021/07/19 08:00:44;;;;;;;1999.90;999.90;;;;;;;29.03;57.93;94960.69;5109975;28;20287;-72
2021/07/19 08:03:12;;;;;;;1999.90;999.90;;;;;;;29.16;59.00;94956.09;5109685;28;20203;-72
2021/07/19 08:05:39;;;;;;;1999.90;999.90;;;;;;;29.27;57.39;94955.78;5109964;28;20585;-72
2021/07/19 08:08:08;;;;;;;1999.90;999.90;;;;;;;29.36;58.67;94954.00;5109507;28;20194;-71
2021/07/19 08:10:35;;;;;;;1999.90;999.90;;;;;;;29.51;58.01;94951.66;5109444;28;20542;-71
2021/07/19 08:13:03;;;;;;;1999.90;999.90;;;;;;;29.55;54.89;94954.97;5109713;28;20823;-72
2021/07/19 08:15:31;;;;;;;1999.90;999.90;;;;;;;29.47;53.96;94956.38;5109516;28;20199;-72
2021/07/19 08:17:58;;;;;;;1999.90;999.90;;;;;;;29.40;53.21;94945.88;5109553;28;20889;-71
2021/07/19 08:20:25;;;;;;;1999.90;999.90;;;;;;;29.44;54.62;94955.28;5117830;27;20433;-71
2021/07/19 08:22:52;;;;;;;1999.90;999.90;;;;;;;29.70;53.73;94952.59;5118923;28;20217;-74
2021/07/19 08:25:21;;;;;;;1999.90;999.90;;;;;;;29.62;51.95;94941.38;5129849;27;20194;-74
2021/07/19 08:27:49;;;;;;;1999.90;999.90;;;;;;;29.63;52.93;94940.19;5130105;27;20195;-75
2021/07/19 08:30:17;;;;;;;1999.90;999.90;;;;;;;29.77;55.37;94945.13;5129996;27;20295;-72
2021/07/19 08:32:45;;;;;;;1999.90;999.90;;;;;;;29.94;51.12;94943.06;5129838;27;20670;-69
2021/07/19 08:35:13;;;;;;;1999.90;999.90;;;;;;;29.97;53.33;94944.16;5129978;27;20276;-75
2021/07/19 08:37:41;;;;;;;1999.90;999.90;;;;;;;30.12;53.35;94950.56;5126706;27;20686;-76
2021/07/19 08:40:11;;;;;;;1999.90;999.90;;;;;;;30.06;52.42;94941.56;5130052;27;20204;-77
2021/07/19 08:42:40;;;;;;;1999.90;999.90;;;;;;;30.25;51.67;94945.91;5130173;27;20202;-77
2021/07/19 08:45:09;;;;;;;1999.90;999.90;;;;;;;30.15;50.71;94944.31;5129733;27;20191;-77
2021/07/19 08:47:37;;;;;;;1999.90;999.90;;;;;;;30.20;49.88;94946.44;5129745;27;20203;-76
2021/07/19 08:50:06;;;;;;;1999.90;999.90;;;;;;;30.28;50.56;94943.13;5129848;27;20205;-76
2021/07/19 08:52:33;;;;;;;1999.90;999.90;;;;;;;30.34;50.75;94941.34;5129902;27;20205;-79
2021/07/19 08:55:02;;;;;;;1999.90;999.90;;;;;;;30.69;50.41;94939.41;5129609;27;20235;-77
2021/07/19 08:57:29;;;;;;;1999.90;999.90;;;;;;;30.49;49.38;94948.94;5129601;27;20227;-78
2021/07/19 09:00:01;;;;;;;1999.90;999.90;;;;;;;30.28;49.84;94931.63;5129796;27;20202;-77
2021/07/19 09:02:30;;;;;;;1999.90;999.90;;;;;;;30.00;50.13;94935.22;5132641;27;20190;-76
2021/07/19 09:04:58;;;;;;;1999.90;999.90;;;;;;;30.17;49.77;94931.22;5133527;27;20194;-77
2021/07/19 09:07:25;;;;;;;1999.90;999.90;;;;;;;30.42;49.97;94931.16;5133632;27;20198;-76
2021/07/19 09:09:53;;;;;;;1999.90;999.90;;;;;;;30.32;50.34;94929.56;5133515;27;20566;-78
2021/07/19 09:12:31;;;;;;;1999.90;999.90;;;;;;;30.43;50.51;94926.53;5133586;27;20204;-76
2021/07/19 09:15:00;;;;;;;1999.90;999.90;;;;;;;30.81;50.68;94918.31;5133591;27;20207;-77
2021/07/19 09:17:28;;;;;;;1999.90;999.90;;;;;;;30.96;49.22;94927.38;5133622;27;20719;-76
2021/07/19 09:19:57;;;;;;;1999.90;999.90;;;;;;;30.77;51.02;94924.59;5122249;27;20204;-77
2021/07/19 09:22:26;;;;;;;1999.90;999.90;;;;;;;30.77;51.94;94911.16;5113027;28;20199;-76
2021/07/19 09:25:05;;;;;;;1999.90;999.90;;;;;;;31.06;49.24;94918.19;5112924;28;20202;-76
2021/07/19 09:27:32;;;;;;;1999.90;999.90;;;;;;;30.81;48.92;94916.41;5112647;28;20195;-76
2021/07/19 09:30:00;;;;;;;1999.90;999.90;;;;;;;30.72;50.39;94917.09;5112329;28;20283;-76
2021/07/19 09:32:28;;;;;;;1999.90;999.90;;;;;;;31.07;51.05;94914.34;5112411;28;20206;-76
2021/07/19 09:34:55;;;;;;;1999.90;999.90;;;;;;;31.30;50.99;94919.22;5112611;28;20237;-78
2021/07/19 09:37:22;;;;;;;1999.90;999.90;;;;;;;31.47;49.99;94917.78;5112498;28;20195;-78
2021/07/19 09:39:54;;;;;;;1999.90;999.90;;;;;;;31.55;50.30;94915.56;5112545;27;20191;-78
2021/07/19 09:42:23;;;;;;;1999.90;999.90;;;;;;;31.69;48.76;94914.28;5112727;28;20210;-78
2021/07/19 09:44:53;;;;;;;1999.90;999.90;;;;;;;31.66;48.77;94917.88;5112527;28;20252;-77
2021/07/19 09:47:33;;;;;;;1999.90;999.90;;;;;;;31.62;50.71;94920.72;5112389;28;20203;-78
2021/07/19 09:50:01;;;;;;;1999.90;999.90;;;;;;;31.88;48.35;94910.47;5112592;28;20183;-78
2021/07/19 09:52:34;;;;;;;1999.90;999.90;;;;;;;31.85;48.25;94917.47;5112416;28;20195;-78
2021/07/19 09:55:01;;;;;;;1999.90;999.90;;;;;;;31.48;46.37;94908.53;5111987;28;20264;-78
2021/07/19 09:57:28;;;;;;;1999.90;999.90;;;;;;;31.70;47.69;94907.72;5111986;28;20194;-76
2021/07/19 09:59:57;;;;;;;1999.90;999.90;;;;;;;31.86;47.55;94910.91;5112157;27;20209;-77
2021/07/19 10:02:36;;;;;;;1999.90;999.90;;;;;;;32.07;47.07;94911.25;5111866;28;20206;-76
2021/07/19 10:05:05;;;;;;;1999.90;999.90;;;;;;;32.29;47.67;94906.50;5111919;28;20567;-78
2021/07/19 10:07:32;;;;;;;1999.90;999.90;;;;;;;32.17;49.51;94905.47;5111834;28;20213;-78
2021/07/19 10:10:00;;;;;;;1999.90;999.90;;;;;;;32.52;46.93;94907.84;5111694;28;20198;-78
2021/07/19 10:12:27;;;;;;;1999.90;999.90;;;;;;;32.48;46.56;94916.78;5111720;28;20214;-79
2021/07/19 10:14:56;;;;;;;1999.90;999.90;;;;;;;32.37;44.79;94916.53;5111600;28;20230;-78
2021/07/19 10:17:24;;;;;;;1999.90;999.90;;;;;;;32.33;46.06;94915.91;5112203;28;20195;-78
2021/07/19 10:19:53;;;;;;;1999.90;999.90;;;;;;;32.50;45.19;94910.97;5121823;27;20309;-78
2021/07/19 10:22:20;;;;;;;1999.90;999.90;;;;;;;32.45;46.54;94906.94;5132143;27;20190;-78
2021/07/19 10:24:47;;;;;;;1999.90;999.90;;;;;;;32.43;43.65;94912.00;5132127;27;20636;-78
2021/07/19 10:27:19;;;;;;;1999.90;999.90;;;;;;;32.40;44.03;94901.41;5132035;27;20194;-78
2021/07/19 10:29:47;;;;;;;1999.90;999.90;;;;;;;32.63;44.85;94897.38;5131851;27;20236;-78
2021/07/19 10:32:17;;;;;;;1999.90;999.90;;;;;;;32.67;44.46;94892.59;5131963;27;20285;-78
2021/07/19 10:34:48;;;;;;;1999.90;999.90;;;;;;;32.69;45.03;94898.28;5132098;27;20203;-78
2021/07/19 10:37:22;;;;;;;1999.90;999.90;;;;;;;32.74;43.71;94881.50;5131824;27;20197;-78
2021/07/19 10:39:52;;;;;;;1999.90;999.90;;;;;;;32.85;44.50;94882.53;5118540;27;20188;-78
2021/07/19 10:42:21;;;;;;;1999.90;999.90;;;;;;;33.06;44.46;94878.16;5111634;28;20183;-78
2021/07/19 10:44:49;;;;;;;1999.90;999.90;;;;;;;32.79;44.78;94873.56;5111487;28;20242;-77
2021/07/19 10:47:18;;;;;;;1999.90;999.90;;;;;;;32.87;45.85;94871.31;5111583;28;20268;-77
2021/07/19 10:49:59;;;;;;;1999.90;999.90;;;;;;;32.86;45.37;94869.81;5111142;28;20191;-77
2021/07/19 10:52:32;;;;;;;1999.90;999.90;;;;;;;32.82;43.60;94866.56;5110979;28;20179;-78
2021/07/19 10:55:02;;;;;;;1999.90;999.90;;;;;;;32.68;43.89;94857.16;5110931;28;20658;-78
2021/07/19 10:57:37;;;;;;;1999.90;999.90;;;;;;;32.85;45.69;94846.78;5111125;28;20195;-77
2021/07/19 11:00:07;;;;;;;1999.90;999.90;;;;;;;33.19;43.68;94841.00;5111182;28;20199;-78